Time;durP1;ratioP1;P1;durP2;ratioP2;P2;SDS_P1;SDS_P2;PMS_P1;PMS_P2;Temp;Humidity;BMP_temperature;BMP_pressure;BME280_temperature;BME280_humidity;BME280_pressure;Samples;Min_cycle;Max_cycle;Signal;HPM_P1;HPM_P2
2023/04/05 00:00:25;;;;;;;;;;;2.20;99.90;;;;;;5005997;28;19996;-62
2023/04/05 00:02:51;;;;;;;;;;;2.10;99.90;;;;;;5007027;28;20013;-62
2023/04/05 00:05:28;;;;;;;;;;;2.10;99.90;;;;;;5005286;28;19913;-64
2023/04/05 00:07:54;;;;;;;;;;;2.10;99.90;;;;;;5004254;28;20375;-61
2023/04/05 00:10:19;;;;;;;;;;;2.20;99.90;;;;;;5003043;28;19916;-62
2023/04/05 00:12:45;;;;;;;;;;;2.20;99.90;;;;;;5005696;28;20000;-63
2023/04/05 00:15:10;;;;;;;;;;;2.10;99.90;;;;;;5007789;28;19914;-60
2023/04/05 00:17:36;;;;;;;;;;;2.20;99.90;;;;;;5004403;28;19913;-59
2023/04/05 00:20:06;;;;;;;;;;;2.20;99.90;;;;;;5008153;28;20351;-63
2023/04/05 00:22:34;;;;;;;;;;;2.10;99.90;;;;;;5011344;28;19913;-62
2023/04/05 00:25:00;;;;;;;;;;;2.00;99.90;;;;;;5008776;28;20274;-62
2023/04/05 00:27:26;;;;;;;;;;;2.00;99.90;;;;;;5003032;28;19906;-62
2023/04/05 00:29:51;;;;;;;;;;;2.10;99.90;;;;;;5001278;28;20876;-59
2023/04/05 00:32:17;;;;;;;;;;;2.10;99.90;;;;;;5010235;28;19906;-60
2023/04/05 00:34:42;;;;;;;;;;;2.10;99.90;;;;;;5006582;28;19909;-62
2023/04/05 00:37:08;;;;;;;;;;;2.10;99.90;;;;;;5010160;28;19940;-62
2023/04/05 00:39:33;;;;;;;;;;;2.20;99.90;;;;;;5005879;28;19932;-60
2023/04/05 00:42:01;;;;;;;;;;;2.20;99.90;;;;;;5004255;28;20029;-58
2023/04/05 00:44:27;;;;;;;;;;;2.10;99.90;;;;;;5008688;28;19968;-58
2023/04/05 00:46:54;;;;;;;;;;;2.00;99.90;;;;;;4998876;28;19910;-61
2023/04/05 00:49:19;;;;;;;;;;;2.00;99.90;;;;;;5010405;28;19913;-61
2023/04/05 00:51:45;;;;;;;;;;;2.10;99.90;;;;;;5006922;28;19909;-63
2023/04/05 00:54:11;;;;;;;;;;;2.10;99.90;;;;;;5010327;28;19910;-60
2023/04/05 00:56:37;;;;;;;;;;;2.20;99.90;;;;;;5010520;28;19909;-59
2023/04/05 00:59:02;;;;;;;;;;;2.30;99.90;;;;;;5009580;28;19916;-60
2023/04/05 01:01:28;;;;;;;;;;;2.40;99.90;;;;;;5007904;28;19995;-62
2023/04/05 01:03:58;;;;;;;;;;;2.40;99.90;;;;;;5008439;28;19924;-65
2023/04/05 01:06:27;;;;;;;;;;;2.40;99.90;;;;;;5004325;28;19919;-60
2023/04/05 01:09:01;;;;;;;;;;;2.40;99.90;;;;;;5008553;28;20012;-61
2023/04/05 01:11:29;;;;;;;;;;;2.30;99.90;;;;;;5010772;28;19917;-63
2023/04/05 01:13:58;;;;;;;;;;;2.10;99.90;;;;;;5009029;28;19909;-62
2023/04/05 01:16:24;;;;;;;;;;;2.10;99.90;;;;;;5005582;28;19986;-59
2023/04/05 01:18:55;;;;;;;;;;;2.10;99.90;;;;;;5008383;28;19972;-60
2023/04/05 01:21:32;;;;;;;;;;;2.10;99.90;;;;;;5010695;28;20003;-58
2023/04/05 01:24:01;;;;;;;;;;;2.10;99.90;;;;;;5004209;28;19909;-59
2023/04/05 01:26:44;;;;;;;;;;;2.00;99.90;;;;;;5007983;28;19916;-59
2023/04/05 01:29:28;;;;;;;;;;;2.10;99.90;;;;;;5007562;28;19913;-63
2023/04/05 01:31:54;;;;;;;;;;;2.30;99.90;;;;;;5008740;28;19909;-62
2023/04/05 01:34:28;;;;;;;;;;;2.40;99.90;;;;;;5003911;28;19914;-62
2023/04/05 01:36:55;;;;;;;;;;;2.50;99.90;;;;;;5007918;28;19909;-60
2023/04/05 01:39:22;;;;;;;;;;;2.60;99.90;;;;;;5007085;28;19909;-60
2023/04/05 01:41:47;;;;;;;;;;;2.70;99.90;;;;;;5008806;28;19948;-58
2023/04/05 01:44:13;;;;;;;;;;;2.80;99.90;;;;;;5002575;28;19960;-64
2023/04/05 01:46:38;;;;;;;;;;;2.80;99.90;;;;;;5006869;28;19909;-59
2023/04/05 01:49:04;;;;;;;;;;;2.90;99.90;;;;;;5008056;28;19910;-60
2023/04/05 01:51:30;;;;;;;;;;;2.90;99.90;;;;;;5011916;28;19924;-62
2023/04/05 01:53:56;;;;;;;;;;;2.90;99.90;;;;;;5007749;28;19913;-62
2023/04/05 01:56:21;;;;;;;;;;;2.80;99.90;;;;;;5011425;28;20052;-62
2023/04/05 01:58:47;;;;;;;;;;;2.80;99.90;;;;;;5009134;28;19959;-59
2023/04/05 02:01:12;;;;;;;;;;;2.70;99.90;;;;;;5012965;28;19913;-61
2023/04/05 02:03:38;;;;;;;;;;;2.70;99.90;;;;;;5009446;28;19917;-59
2023/04/05 02:06:04;;;;;;;;;;;2.70;99.90;;;;;;5008124;28;19992;-60
2023/04/05 02:08:29;;;;;;;;;;;2.70;99.90;;;;;;5011735;28;20012;-61
2023/04/05 02:10:55;;;;;;;;;;;2.60;99.90;;;;;;5009160;28;20387;-62
2023/04/05 02:13:21;;;;;;;;;;;2.50;99.90;;;;;;5011389;28;20398;-62
2023/04/05 02:15:49;;;;;;;;;;;2.50;99.90;;;;;;5007868;28;19968;-65
2023/04/05 02:18:40;;;;;;;;;;;2.50;99.90;;;;;;5009344;28;19917;-62
2023/04/05 02:21:06;;;;;;;;;;;2.50;99.90;;;;;;5005667;28;19921;-59
2023/04/05 02:23:32;;;;;;;;;;;2.60;99.90;;;;;;5008980;28;20402;-58
2023/04/05 02:25:58;;;;;;;;;;;2.70;99.90;;;;;;5008418;28;19922;-61
2023/04/05 02:28:24;;;;;;;;;;;2.70;99.90;;;;;;5011586;28;19914;-57
2023/04/05 02:30:49;;;;;;;;;;;2.80;99.90;;;;;;5004172;28;19914;-60
2023/04/05 02:33:15;;;;;;;;;;;2.90;99.90;;;;;;5006934;28;20372;-61
2023/04/05 02:35:40;;;;;;;;;;;2.90;99.90;;;;;;5007457;28;19913;-60
2023/04/05 02:38:06;;;;;;;;;;;2.90;99.90;;;;;;5009251;28;20406;-63
2023/04/05 02:40:32;;;;;;;;;;;2.80;99.90;;;;;;5007250;28;19920;-62
2023/04/05 02:42:57;;;;;;;;;;;2.80;99.90;;;;;;5009321;28;20021;-61
2023/04/05 02:45:23;;;;;;;;;;;2.70;99.90;;;;;;5007633;28;20000;-61
2023/04/05 02:47:48;;;;;;;;;;;2.60;99.90;;;;;;5007456;28;19913;-61
2023/04/05 02:50:19;;;;;;;;;;;2.60;99.90;;;;;;5003315;28;19932;-61
2023/04/05 02:52:45;;;;;;;;;;;2.60;99.90;;;;;;5009953;28;19922;-64
2023/04/05 02:55:11;;;;;;;;;;;2.60;99.90;;;;;;5010444;28;20332;-60
2023/04/05 02:57:36;;;;;;;;;;;2.60;99.90;;;;;;5009103;28;19913;-62
2023/04/05 03:00:03;;;;;;;;;;;2.60;99.90;;;;;;5003810;28;20356;-60
2023/04/05 03:02:30;;;;;;;;;;;2.50;99.90;;;;;;5007873;28;19918;-62
2023/04/05 03:04:55;;;;;;;;;;;2.50;99.90;;;;;;5009066;28;20411;-62
2023/04/05 03:07:24;;;;;;;;;;;2.50;99.90;;;;;;5008504;28;19914;-59
2023/04/05 03:09:50;;;;;;;;;;;2.50;99.90;;;;;;5006870;28;19921;-59
2023/04/05 03:12:15;;;;;;;;;;;2.50;99.90;;;;;;5005225;28;20291;-62
2023/04/05 03:14:41;;;;;;;;;;;2.50;99.90;;;;;;5009108;28;20407;-61
2023/04/05 03:17:06;;;;;;;;;;;2.50;99.90;;;;;;5008241;28;19968;-59
2023/04/05 03:19:32;;;;;;;;;;;2.40;99.90;;;;;;5007898;28;19914;-63
2023/04/05 03:21:57;;;;;;;;;;;2.40;99.90;;;;;;5008628;28;19932;-60
2023/04/05 03:24:23;;;;;;;;;;;2.40;99.90;;;;;;5007613;28;19918;-59
2023/04/05 03:26:48;;;;;;;;;;;2.40;99.90;;;;;;5009500;28;19920;-62
2023/04/05 03:29:17;;;;;;;;;;;2.40;99.90;;;;;;5005142;28;19945;-58
2023/04/05 03:31:43;;;;;;;;;;;2.40;99.90;;;;;;5006783;28;20723;-64
2023/04/05 03:34:08;;;;;;;;;;;2.00;99.90;;;;;;5007004;28;20501;-62
2023/04/05 03:36:41;;;;;;;;;;;1.70;99.90;;;;;;5006187;28;19913;-60
2023/04/05 03:39:08;;;;;;;;;;;1.50;99.90;;;;;;5007232;28;19968;-65
2023/04/05 03:41:33;;;;;;;;;;;1.40;99.90;;;;;;5009984;28;19921;-59
2023/04/05 03:43:59;;;;;;;;;;;1.40;99.90;;;;;;5005346;28;19914;-56
2023/04/05 03:46:24;;;;;;;;;;;1.50;99.90;;;;;;5004553;28;19913;-60
2023/04/05 03:48:50;;;;;;;;;;;1.50;99.90;;;;;;5007352;28;19917;-58
2023/04/05 03:51:15;;;;;;;;;;;1.50;99.90;;;;;;5006288;28;19968;-56
2023/04/05 03:53:41;;;;;;;;;;;1.50;99.90;;;;;;5009986;28;19914;-60
2023/04/05 03:56:06;;;;;;;;;;;1.40;99.90;;;;;;5010807;28;19925;-61
2023/04/05 03:58:32;;;;;;;;;;;1.30;99.90;;;;;;5012143;28;19913;-60
2023/04/05 04:00:57;;;;;;;;;;;1.20;99.90;;;;;;5008530;28;19937;-60
2023/04/05 04:03:24;;;;;;;;;;;0.90;99.90;;;;;;5012619;28;19917;-61
2023/04/05 04:05:50;;;;;;;;;;;0.90;99.90;;;;;;5012743;28;19918;-59
2023/04/05 04:08:16;;;;;;;;;;;0.80;99.90;;;;;;5012573;28;19914;-61
2023/04/05 04:10:41;;;;;;;;;;;0.80;99.90;;;;;;5007151;28;20019;-62
2023/04/05 04:13:07;;;;;;;;;;;0.80;99.90;;;;;;5012462;28;20303;-62
2023/04/05 04:15:32;;;;;;;;;;;0.80;99.90;;;;;;5010798;28;19917;-59
2023/04/05 04:17:57;;;;;;;;;;;0.90;99.90;;;;;;5008894;28;20004;-62
2023/04/05 04:20:23;;;;;;;;;;;0.90;99.90;;;;;;5014164;28;19913;-59
2023/04/05 04:22:48;;;;;;;;;;;0.90;99.90;;;;;;5009322;28;19924;-60
2023/04/05 04:25:16;;;;;;;;;;;0.80;99.90;;;;;;5011158;28;19918;-62
2023/04/05 04:27:42;;;;;;;;;;;0.80;99.90;;;;;;5005827;28;19940;-61
2023/04/05 04:30:09;;;;;;;;;;;0.90;99.90;;;;;;5008162;28;19914;-62
2023/04/05 04:32:50;;;;;;;;;;;0.90;99.90;;;;;;5009632;28;19913;-61
2023/04/05 04:35:26;;;;;;;;;;;0.90;99.90;;;;;;5012961;28;19913;-59
2023/04/05 04:38:01;;;;;;;;;;;0.90;99.90;;;;;;5008219;28;19960;-58
2023/04/05 04:40:28;;;;;;;;;;;0.90;99.90;;;;;;5010692;28;19917;-59
2023/04/05 04:42:57;;;;;;;;;;;0.90;99.90;;;;;;5006717;28;19924;-58
2023/04/05 04:45:23;;;;;;;;;;;0.80;99.90;;;;;;5008784;28;19921;-65
2023/04/05 04:47:48;;;;;;;;;;;0.70;99.90;;;;;;5009569;28;20354;-62
2023/04/05 04:50:15;;;;;;;;;;;0.70;99.90;;;;;;5009807;28;19913;-61
2023/04/05 04:52:41;;;;;;;;;;;0.60;99.90;;;;;;5011055;28;19937;-64
2023/04/05 04:55:13;;;;;;;;;;;0.50;99.90;;;;;;5009802;28;19917;-62
2023/04/05 04:57:39;;;;;;;;;;;0.50;99.90;;;;;;5007732;28;19921;-62
2023/04/05 05:00:13;;;;;;;;;;;0.50;99.90;;;;;;5008692;28;19921;-62
2023/04/05 05:02:39;;;;;;;;;;;0.40;99.90;;;;;;5008222;28;19933;-62
2023/04/05 05:05:06;;;;;;;;;;;0.40;99.90;;;;;;5009746;28;19917;-60
2023/04/05 05:07:31;;;;;;;;;;;0.40;99.90;;;;;;5004424;28;19920;-62
2023/04/05 05:09:57;;;;;;;;;;;0.40;99.90;;;;;;5004522;28;19918;-61
2023/04/05 05:12:23;;;;;;;;;;;0.50;99.90;;;;;;5012131;28;20434;-61
2023/04/05 05:14:48;;;;;;;;;;;0.60;99.90;;;;;;5010536;28;19920;-62
2023/04/05 05:17:14;;;;;;;;;;;0.50;99.90;;;;;;5009686;28;19913;-60
2023/04/05 05:19:39;;;;;;;;;;;0.60;99.90;;;;;;5009657;28;20351;-59
2023/04/05 05:22:05;;;;;;;;;;;0.50;99.90;;;;;;5004890;28;19929;-60
2023/04/05 05:24:30;;;;;;;;;;;0.60;99.90;;;;;;5007482;28;19920;-59
2023/04/05 05:26:56;;;;;;;;;;;0.50;99.90;;;;;;5006575;28;20285;-67
2023/04/05 05:29:21;;;;;;;;;;;0.50;99.90;;;;;;5005921;28;19989;-60
2023/04/05 05:31:47;;;;;;;;;;;0.50;99.90;;;;;;5006088;28;19920;-58
2023/04/05 05:34:12;;;;;;;;;;;0.50;99.90;;;;;;5008041;28;20333;-63
2023/04/05 05:36:38;;;;;;;;;;;0.50;99.90;;;;;;5009349;28;19957;-63
2023/04/05 05:39:06;;;;;;;;;;;0.50;99.90;;;;;;5005189;28;19914;-60
2023/04/05 05:41:32;;;;;;;;;;;0.50;99.90;;;;;;5006235;28;19928;-58
2023/04/05 05:43:57;;;;;;;;;;;0.50;99.90;;;;;;5008864;28;19913;-59
2023/04/05 05:46:23;;;;;;;;;;;0.60;99.90;;;;;;5005909;28;19982;-62
2023/04/05 05:48:48;;;;;;;;;;;0.70;99.90;;;;;;5003190;28;20493;-62
2023/04/05 05:51:14;;;;;;;;;;;0.80;99.90;;;;;;5003446;28;19960;-64
2023/04/05 05:53:40;;;;;;;;;;;0.90;99.90;;;;;;5004589;28;19921;-59
2023/04/05 05:56:06;;;;;;;;;;;1.00;99.90;;;;;;4999401;28;20004;-63
2023/04/05 05:58:31;;;;;;;;;;;1.10;99.90;;;;;;5002022;28;19913;-58
2023/04/05 06:00:57;;;;;;;;;;;1.20;99.90;;;;;;5001327;28;19914;-63
2023/04/05 06:03:24;;;;;;;;;;;1.30;99.90;;;;;;5002359;28;19964;-61
2023/04/05 06:05:53;;;;;;;;;;;1.40;99.90;;;;;;4999580;28;19994;-62
2023/04/05 06:08:19;;;;;;;;;;;1.40;99.90;;;;;;5000542;28;19913;-64
2023/04/05 06:10:44;;;;;;;;;;;1.50;99.90;;;;;;4999443;28;20429;-59
2023/04/05 06:13:10;;;;;;;;;;;1.50;99.90;;;;;;5005153;28;20399;-62
2023/04/05 06:15:35;;;;;;;;;;;1.60;99.90;;;;;;5002428;28;19922;-58
2023/04/05 06:18:01;;;;;;;;;;;1.70;99.90;;;;;;5003229;28;19918;-59
2023/04/05 06:20:26;;;;;;;;;;;1.70;99.90;;;;;;5006673;28;19957;-60
2023/04/05 06:22:52;;;;;;;;;;;1.80;99.90;;;;;;5004157;28;19960;-62
2023/04/05 06:25:17;;;;;;;;;;;1.90;99.90;;;;;;5009217;28;20303;-61
2023/04/05 06:27:43;;;;;;;;;;;2.00;99.90;;;;;;4999911;28;19920;-62
2023/04/05 06:30:08;;;;;;;;;;;2.00;99.90;;;;;;5010595;28;19914;-59
2023/04/05 06:32:34;;;;;;;;;;;2.10;99.90;;;;;;5002616;28;20325;-63
2023/04/05 06:35:00;;;;;;;;;;;2.20;99.90;;;;;;5004622;28;19941;-62
2023/04/05 06:37:26;;;;;;;;;;;2.30;99.90;;;;;;5003217;28;21388;-63
2023/04/05 06:39:51;;;;;;;;;;;2.40;99.90;;;;;;5003265;28;19913;-62
2023/04/05 06:42:16;;;;;;;;;;;2.50;99.90;;;;;;5006931;28;19918;-59
2023/04/05 06:44:42;;;;;;;;;;;2.50;99.90;;;;;;5007220;28;20391;-63
2023/04/05 06:47:07;;;;;;;;;;;2.60;99.90;;;;;;5001645;28;20456;-63
2023/04/05 06:49:33;;;;;;;;;;;2.60;99.90;;;;;;5004105;28;19924;-58
2023/04/05 06:51:58;;;;;;;;;;;2.70;99.90;;;;;;5005665;28;19929;-61
2023/04/05 06:54:24;;;;;;;;;;;2.80;99.90;;;;;;5007046;28;19960;-64
2023/04/05 06:56:50;;;;;;;;;;;2.90;99.90;;;;;;5005674;28;19913;-61
2023/04/05 06:59:15;;;;;;;;;;;3.00;99.90;;;;;;5005309;28;20307;-60
2023/04/05 07:01:41;;;;;;;;;;;3.10;99.90;;;;;;5001580;28;20380;-60
2023/04/05 07:04:06;;;;;;;;;;;3.10;99.90;;;;;;5004205;28;20368;-61
2023/04/05 07:06:34;;;;;;;;;;;3.20;99.90;;;;;;5006465;28;19918;-62
2023/04/05 07:09:00;;;;;;;;;;;3.30;99.90;;;;;;5000932;28;19959;-60
2023/04/05 07:11:26;;;;;;;;;;;3.30;99.90;;;;;;5001105;28;20025;-62
2023/04/05 07:13:51;;;;;;;;;;;3.40;99.90;;;;;;4999418;28;20430;-63
2023/04/05 07:16:21;;;;;;;;;;;3.50;99.90;;;;;;5006421;28;20438;-64
2023/04/05 07:18:47;;;;;;;;;;;3.50;99.90;;;;;;5002912;28;20396;-55
2023/04/05 07:21:12;;;;;;;;;;;3.60;99.90;;;;;;5005507;28;19948;-56
2023/04/05 07:23:37;;;;;;;;;;;3.80;99.90;;;;;;5000862;28;19925;-55
2023/04/05 07:26:03;;;;;;;;;;;3.80;99.90;;;;;;5002902;28;19914;-53
2023/04/05 07:28:29;;;;;;;;;;;3.90;99.90;;;;;;5005581;28;19925;-56
2023/04/05 07:30:57;;;;;;;;;;;4.00;99.90;;;;;;5008939;28;20126;-55
2023/04/05 07:33:22;;;;;;;;;;;4.10;99.90;;;;;;5011344;28;20367;-56
2023/04/05 07:35:52;;;;;;;;;;;4.30;99.90;;;;;;5009308;28;20433;-59
2023/04/05 07:38:17;;;;;;;;;;;4.40;99.90;;;;;;5007773;28;20019;-61
2023/04/05 07:40:43;;;;;;;;;;;4.40;99.90;;;;;;5007846;28;20466;-55
2023/04/05 07:43:08;;;;;;;;;;;4.50;99.90;;;;;;5006544;28;20411;-54
2023/04/05 07:45:33;;;;;;;;;;;4.60;99.90;;;;;;5006747;28;19984;-55
2023/04/05 07:47:59;;;;;;;;;;;4.60;99.90;;;;;;5003327;28;19925;-54
2023/04/05 07:50:25;;;;;;;;;;;4.70;99.90;;;;;;5009172;28;19921;-56
2023/04/05 07:52:51;;;;;;;;;;;4.80;99.90;;;;;;5007967;28;19922;-58
2023/04/05 07:55:16;;;;;;;;;;;4.80;99.90;;;;;;5006708;28;19963;-55
2023/04/05 07:57:42;;;;;;;;;;;4.90;99.90;;;;;;5010313;28;19913;-56
2023/04/05 08:00:12;;;;;;;;;;;5.00;99.90;;;;;;5007681;28;19921;-58
2023/04/05 08:02:37;;;;;;;;;;;5.00;99.90;;;;;;5007918;28;19927;-55
2023/04/05 08:05:03;;;;;;;;;;;5.20;99.90;;;;;;5009093;28;19913;-56
2023/04/05 08:07:29;;;;;;;;;;;5.20;99.90;;;;;;5010688;28;19921;-53
2023/04/05 08:09:56;;;;;;;;;;;5.30;99.90;;;;;;5003109;28;21501;-54
2023/04/05 08:12:22;;;;;;;;;;;5.30;99.90;;;;;;5013035;28;19920;-55
2023/04/05 08:14:47;;;;;;;;;;;5.40;99.90;;;;;;5007623;28;19914;-52
2023/04/05 08:17:13;;;;;;;;;;;5.50;99.90;;;;;;5002525;28;19963;-54
2023/04/05 08:19:39;;;;;;;;;;;5.60;99.90;;;;;;5008788;28;19972;-55
2023/04/05 08:22:05;;;;;;;;;;;5.60;99.90;;;;;;5006435;28;19928;-56
2023/04/05 08:24:30;;;;;;;;;;;5.70;99.90;;;;;;5003642;28;19917;-55
2023/04/05 08:26:56;;;;;;;;;;;5.80;99.90;;;;;;5001423;28;19917;-60
2023/04/05 08:29:21;;;;;;;;;;;5.80;99.90;;;;;;5011073;28;19920;-57
2023/04/05 08:31:47;;;;;;;;;;;6.00;99.90;;;;;;5012217;28;19914;-56
2023/04/05 08:34:12;;;;;;;;;;;6.10;99.90;;;;;;5009054;28;19913;-54
2023/04/05 08:36:37;;;;;;;;;;;6.20;99.90;;;;;;5009063;28;19924;-56
2023/04/05 08:39:03;;;;;;;;;;;6.30;99.90;;;;;;5007918;28;19921;-52
2023/04/05 08:41:34;;;;;;;;;;;6.40;99.90;;;;;;5006382;28;20287;-54
2023/04/05 08:44:01;;;;;;;;;;;6.40;99.90;;;;;;5005436;28;19917;-53
2023/04/05 08:46:29;;;;;;;;;;;6.60;99.90;;;;;;5009234;28;19914;-52
2023/04/05 08:48:57;;;;;;;;;;;6.70;99.90;;;;;;5008256;28;19913;-56
2023/04/05 08:51:23;;;;;;;;;;;6.70;99.90;;;;;;5001953;28;20059;-57
2023/04/05 08:53:48;;;;;;;;;;;6.70;99.90;;;;;;5005228;28;20667;-55
2023/04/05 08:56:34;;;;;;;;;;;6.80;99.90;;;;;;5006143;28;19922;-59
2023/04/05 08:59:04;;;;;;;;;;;6.90;99.90;;;;;;5004047;28;19960;-58
2023/04/05 09:01:31;;;;;;;;;;;7.10;99.90;;;;;;5006024;28;19920;-56
2023/04/05 09:04:00;;;;;;;;;;;7.20;99.90;;;;;;5006191;28;19925;-56
2023/04/05 09:06:27;;;;;;;;;;;7.30;99.90;;;;;;5012226;28;19916;-55
2023/04/05 09:08:56;;;;;;;;;;;7.40;99.90;;;;;;5007697;28;19932;-59
2023/04/05 09:11:21;;;;;;;;;;;7.50;99.90;;;;;;5008804;28;19929;-56
2023/04/05 09:13:47;;;;;;;;;;;7.70;99.90;;;;;;5011350;28;19910;-58
2023/04/05 09:16:15;;;;;;;;;;;7.70;99.90;;;;;;5009876;28;19921;-55
2023/04/05 09:18:41;;;;;;;;;;;7.90;99.90;;;;;;5003626;28;19918;-57
2023/04/05 09:21:06;;;;;;;;;;;8.00;99.90;;;;;;5007304;28;19932;-58
2023/04/05 09:23:35;;;;;;;;;;;8.20;99.90;;;;;;5010096;28;19918;-54
2023/04/05 09:26:15;;;;;;;;;;;8.20;99.90;;;;;;5007282;28;19921;-55
2023/04/05 09:28:42;;;;;;;;;;;8.20;99.90;;;;;;5010152;28;19957;-56
2023/04/05 09:31:07;;;;;;;;;;;8.20;99.90;;;;;;5003839;28;19918;-55
2023/04/05 09:33:33;;;;;;;;;;;8.40;99.90;;;;;;5001999;28;19918;-57
2023/04/05 09:35:58;;;;;;;;;;;8.50;99.90;;;;;;5008060;28;19917;-53
2023/04/05 09:38:42;;;;;;;;;;;8.70;99.90;;;;;;5007310;28;20307;-57
2023/04/05 09:41:09;;;;;;;;;;;8.90;99.90;;;;;;5006835;28;20019;-52
2023/04/05 09:43:36;;;;;;;;;;;9.10;99.90;;;;;;5010124;28;19972;-58
2023/04/05 09:46:01;;;;;;;;;;;9.20;99.90;;;;;;5009912;28;20004;-56
2023/04/05 09:48:46;;;;;;;;;;;9.00;99.90;;;;;;5007543;28;20000;-59
2023/04/05 09:51:13;;;;;;;;;;;9.20;99.90;;;;;;5005876;28;19933;-60
2023/04/05 09:53:55;;;;;;;;;;;9.20;99.90;;;;;;5004913;28;19921;-57
2023/04/05 09:56:20;;;;;;;;;;;9.10;99.90;;;;;;5007870;28;19921;-55
2023/04/05 09:58:49;;;;;;;;;;;9.10;99.90;;;;;;4999934;28;19924;-60
2023/04/05 10:01:15;;;;;;;;;;;9.30;99.90;;;;;;5004013;28;20000;-58
2023/04/05 10:03:47;;;;;;;;;;;9.40;99.90;;;;;;5002266;28;19940;-59
2023/04/05 10:06:14;;;;;;;;;;;9.40;99.90;;;;;;5002066;28;20478;-59
2023/04/05 10:08:40;;;;;;;;;;;9.70;99.90;;;;;;5002964;28;19963;-57
2023/04/05 10:11:05;;;;;;;;;;;9.80;99.90;;;;;;5006640;28;20008;-55
2023/04/05 10:13:31;;;;;;;;;;;9.60;99.90;;;;;;5007057;28;19910;-54
2023/04/05 10:15:58;;;;;;;;;;;10.10;99.90;;;;;;5003361;28;19913;-60
2023/04/05 10:18:28;;;;;;;;;;;10.50;99.90;;;;;;5006356;28;19918;-59
2023/04/05 10:20:56;;;;;;;;;;;10.80;99.90;;;;;;5004869;28;19948;-55
2023/04/05 10:23:27;;;;;;;;;;;11.00;99.90;;;;;;5006019;28;19918;-53
2023/04/05 10:25:52;;;;;;;;;;;11.10;99.90;;;;;;5004813;28;19957;-58
2023/04/05 10:28:21;;;;;;;;;;;10.90;99.90;;;;;;5007761;28;19937;-55
2023/04/05 10:30:50;;;;;;;;;;;11.10;99.90;;;;;;5005645;28;20001;-54
2023/04/05 10:33:19;;;;;;;;;;;11.10;99.90;;;;;;4999578;28;19964;-57
2023/04/05 10:36:03;;;;;;;;;;;11.00;99.90;;;;;;5001669;28;19983;-56
2023/04/05 10:38:29;;;;;;;;;;;11.40;99.90;;;;;;5003168;28;20441;-56
2023/04/05 10:40:57;;;;;;;;;;;11.50;99.90;;;;;;5001495;28;19922;-53
2023/04/05 10:43:25;;;;;;;;;;;11.50;99.90;;;;;;5005135;28;19928;-53
2023/04/05 10:45:52;;;;;;;;;;;11.60;99.90;;;;;;5002144;28;20394;-56
2023/04/05 10:48:24;;;;;;;;;;;11.20;99.70;;;;;;5000711;28;19922;-54
2023/04/05 10:50:49;;;;;;;;;;;11.60;99.90;;;;;;5002930;28;19923;-55
2023/04/05 10:53:15;;;;;;;;;;;11.20;96.90;;;;;;4997899;28;19906;-61
2023/04/05 10:55:42;;;;;;;;;;;11.20;98.50;;;;;;5003488;28;19913;-56
2023/04/05 10:58:09;;;;;;;;;;;11.50;98.30;;;;;;5002102;28;19909;-55
2023/04/05 11:00:34;;;;;;;;;;;11.90;96.00;;;;;;5004257;28;20429;-59
2023/04/05 11:03:00;;;;;;;;;;;11.90;96.40;;;;;;4999214;28;19917;-54
2023/04/05 11:05:32;;;;;;;;;;;12.10;95.00;;;;;;5000885;28;20302;-58
2023/04/05 11:08:03;;;;;;;;;;;12.20;94.90;;;;;;5003169;28;19910;-58
2023/04/05 11:10:28;;;;;;;;;;;12.10;94.30;;;;;;5003788;28;19914;-53
2023/04/05 11:12:57;;;;;;;;;;;11.90;94.60;;;;;;5006318;28;19906;-55
2023/04/05 11:15:28;;;;;;;;;;;11.70;94.30;;;;;;4997746;28;19940;-53
2023/04/05 11:18:04;;;;;;;;;;;11.40;93.20;;;;;;5004741;28;19921;-58
2023/04/05 11:20:41;;;;;;;;;;;11.60;94.60;;;;;;5002478;28;20047;-51
2023/04/05 11:23:07;;;;;;;;;;;11.80;94.70;;;;;;5006787;28;20405;-57
2023/04/05 11:25:36;;;;;;;;;;;12.00;94.90;;;;;;5001481;28;19961;-53
2023/04/05 11:28:01;;;;;;;;;;;12.20;93.70;;;;;;5004314;28;19917;-56
2023/04/05 11:30:45;;;;;;;;;;;12.40;92.70;;;;;;5004509;28;20532;-56
2023/04/05 11:33:10;;;;;;;;;;;12.50;92.50;;;;;;5001587;28;19917;-53
2023/04/05 11:35:38;;;;;;;;;;;12.10;92.10;;;;;;4998323;28;20322;-55
2023/04/05 11:38:03;;;;;;;;;;;12.20;91.60;;;;;;4998846;28;19969;-57
2023/04/05 11:40:29;;;;;;;;;;;12.10;91.60;;;;;;5007196;28;19983;-54
2023/04/05 11:43:02;;;;;;;;;;;12.40;91.80;;;;;;4997778;28;20291;-59
2023/04/05 11:45:31;;;;;;;;;;;12.70;91.50;;;;;;5004599;28;20295;-55
2023/04/05 11:48:04;;;;;;;;;;;12.60;93.90;;;;;;5003935;28;20080;-59
2023/04/05 11:50:30;;;;;;;;;;;12.60;89.30;;;;;;4997172;28;19939;-55
2023/04/05 11:53:14;;;;;;;;;;;13.00;90.60;;;;;;5007111;28;19910;-56
2023/04/05 11:55:41;;;;;;;;;;;13.50;87.80;;;;;;5007076;28;19918;-55
2023/04/05 11:58:13;;;;;;;;;;;13.60;86.80;;;;;;5005016;28;19928;-57
2023/04/05 12:00:42;;;;;;;;;;;13.90;82.60;;;;;;5001699;28;19913;-54
2023/04/05 12:03:14;;;;;;;;;;;13.80;81.40;;;;;;5005014;28;19926;-57
2023/04/05 12:05:46;;;;;;;;;;;13.70;82.40;;;;;;5008233;28;20364;-57
2023/04/05 12:08:11;;;;;;;;;;;13.30;76.40;;;;;;5004785;28;19917;-58
2023/04/05 12:10:36;;;;;;;;;;;13.70;78.00;;;;;;5004073;28;19917;-57
2023/04/05 12:13:02;;;;;;;;;;;13.80;82.50;;;;;;5003580;28;20469;-61
2023/04/05 12:15:27;;;;;;;;;;;14.20;82.60;;;;;;5008069;28;19922;-58
2023/04/05 12:17:53;;;;;;;;;;;13.70;77.20;;;;;;5008525;28;19968;-58
2023/04/05 12:20:19;;;;;;;;;;;13.70;80.20;;;;;;5006334;28;19948;-55
2023/04/05 12:22:47;;;;;;;;;;;14.10;82.60;;;;;;5004081;28;20493;-58
2023/04/05 12:25:13;;;;;;;;;;;14.60;84.00;;;;;;5003904;28;19914;-53
2023/04/05 12:27:39;;;;;;;;;;;14.30;77.60;;;;;;5006437;28;19922;-57
2023/04/05 12:30:05;;;;;;;;;;;14.80;75.60;;;;;;5006467;28;19921;-61
2023/04/05 12:32:35;;;;;;;;;;;15.00;78.50;;;;;;5009196;28;19945;-57
2023/04/05 12:35:00;;;;;;;;;;;13.90;79.30;;;;;;5007987;28;20112;-60
2023/04/05 12:37:26;;;;;;;;;;;14.50;77.50;;;;;;5009959;28;20048;-57
2023/04/05 12:39:53;;;;;;;;;;;14.50;79.70;;;;;;5005187;28;20596;-57
2023/04/05 12:42:18;;;;;;;;;;;14.60;77.70;;;;;;5009966;28;19917;-59
2023/04/05 12:44:44;;;;;;;;;;;14.50;75.60;;;;;;5007119;28;20462;-56
2023/04/05 12:47:10;;;;;;;;;;;14.50;75.30;;;;;;5005980;28;20568;-58
2023/04/05 12:49:36;;;;;;;;;;;14.60;74.70;;;;;;5003680;28;19925;-55
2023/04/05 12:52:01;;;;;;;;;;;14.70;74.50;;;;;;5007473;28;19929;-56
2023/04/05 12:54:27;;;;;;;;;;;14.30;79.20;;;;;;5005700;28;19937;-59
2023/04/05 12:56:53;;;;;;;;;;;15.00;78.80;;;;;;5008250;28;19924;-60
2023/04/05 12:59:19;;;;;;;;;;;15.60;76.20;;;;;;5005658;28;20257;-60
2023/04/05 13:01:44;;;;;;;;;;;15.70;72.90;;;;;;5007994;28;20032;-60
2023/04/05 13:04:10;;;;;;;;;;;15.20;72.50;;;;;;5004770;28;20395;-58
2023/04/05 13:06:35;;;;;;;;;;;15.00;74.50;;;;;;5009635;28;19914;-62
2023/04/05 13:09:01;;;;;;;;;;;15.00;76.20;;;;;;5007799;28;19914;-60
2023/04/05 13:11:27;;;;;;;;;;;14.80;74.40;;;;;;5008594;28;19921;-60
2023/04/05 13:13:52;;;;;;;;;;;14.90;79.00;;;;;;5008873;28;19956;-61
2023/04/05 13:16:18;;;;;;;;;;;14.70;80.10;;;;;;5007780;28;19920;-61
2023/04/05 13:18:43;;;;;;;;;;;14.00;77.40;;;;;;5005958;28;19926;-61
2023/04/05 13:21:10;;;;;;;;;;;13.80;75.10;;;;;;5008185;28;19964;-61
2023/04/05 13:23:36;;;;;;;;;;;14.10;72.30;;;;;;5005780;28;19925;-60
2023/04/05 13:26:02;;;;;;;;;;;14.40;73.00;;;;;;5005993;28;19921;-60
2023/04/05 13:28:28;;;;;;;;;;;14.50;74.40;;;;;;5007635;28;19917;-60
2023/04/05 13:30:53;;;;;;;;;;;14.70;71.70;;;;;;5007966;28;19917;-58
2023/04/05 13:33:19;;;;;;;;;;;14.70;72.10;;;;;;5009272;28;19953;-58
2023/04/05 13:35:44;;;;;;;;;;;14.90;71.30;;;;;;5007263;28;20277;-62
2023/04/05 13:38:10;;;;;;;;;;;14.60;72.70;;;;;;5006987;28;20338;-57
2023/04/05 13:40:35;;;;;;;;;;;14.90;72.90;;;;;;5006754;28;19984;-63
2023/04/05 13:43:01;;;;;;;;;;;15.10;71.90;;;;;;5004593;28;19925;-55
2023/04/05 13:45:26;;;;;;;;;;;15.20;71.40;;;;;;5000015;28;19929;-56
2023/04/05 13:47:52;;;;;;;;;;;15.40;72.00;;;;;;5004193;28;19918;-59
2023/04/05 13:50:17;;;;;;;;;;;15.30;77.60;;;;;;5008429;28;20275;-59
2023/04/05 13:52:43;;;;;;;;;;;15.10;71.70;;;;;;5011180;28;19917;-60
2023/04/05 13:55:08;;;;;;;;;;;15.40;67.90;;;;;;5003717;28;20281;-61
2023/04/05 13:57:34;;;;;;;;;;;15.40;69.10;;;;;;5003747;28;19955;-58
2023/04/05 14:00:00;;;;;;;;;;;14.70;68.40;;;;;;5005228;28;20817;-59
2023/04/05 14:02:26;;;;;;;;;;;14.70;69.60;;;;;;5010786;28;20413;-60
2023/04/05 14:04:54;;;;;;;;;;;15.30;69.70;;;;;;5007929;28;19924;-58
2023/04/05 14:07:20;;;;;;;;;;;15.40;68.30;;;;;;5005172;28;20316;-56
2023/04/05 14:09:46;;;;;;;;;;;15.90;69.40;;;;;;5010007;28;19925;-56
2023/04/05 14:12:11;;;;;;;;;;;16.30;66.70;;;;;;5010762;28;19914;-60
2023/04/05 14:14:37;;;;;;;;;;;15.20;70.50;;;;;;5006233;28;20402;-56
2023/04/05 14:17:02;;;;;;;;;;;15.30;69.80;;;;;;5004821;28;19925;-61
2023/04/05 14:19:28;;;;;;;;;;;15.70;75.20;;;;;;5006860;28;19921;-57
2023/04/05 14:21:53;;;;;;;;;;;15.00;67.30;;;;;;5006750;28;19917;-57
2023/04/05 14:24:19;;;;;;;;;;;15.20;68.50;;;;;;5004598;28;19914;-58